Time;durP1;ratioP1;P1;durP2;ratioP2;P2;SDS_P1;SDS_P2;PMS_P1;PMS_P2;Temp;Humidity;BMP_temperature;BMP_pressure;BME280_temperature;BME280_humidity;BME280_pressure;Samples;Min_cycle;Max_cycle;Signal;HPM_P1;HPM_P2
2022/05/15 00:01:54;;;;;;;23.65;5.43;;;;;;;;;;5042713;28;20052;-75
2022/05/15 00:04:20;;;;;;;32.70;6.50;;;;;;;;;;5047955;28;20029;-75
2022/05/15 00:06:46;;;;;;;28.10;6.80;;;;;;;;;;5054127;28;20032;-75
2022/05/15 00:09:12;;;;;;;25.67;6.13;;;;;;;;;;5041867;28;20075;-75
2022/05/15 00:11:38;;;;;;;27.13;5.47;;;;;;;;;;5058017;28;20464;-75
2022/05/15 00:14:04;;;;;;;24.10;5.85;;;;;;;;;;5022458;28;20115;-75
2022/05/15 00:16:34;;;;;;;27.83;6.43;;;;;;;;;;5065903;28;20037;-75
2022/05/15 00:19:00;;;;;;;30.63;6.35;;;;;;;;;;5060399;28;20071;-75
2022/05/15 00:21:26;;;;;;;32.10;5.97;;;;;;;;;;5040063;28;20048;-75
2022/05/15 00:23:52;;;;;;;25.52;6.05;;;;;;;;;;5021309;28;20021;-75
2022/05/15 00:26:18;;;;;;;23.15;5.30;;;;;;;;;;5047683;28;20645;-75
2022/05/15 00:28:44;;;;;;;27.85;5.93;;;;;;;;;;5031293;28;20392;-76
2022/05/15 00:31:11;;;;;;;28.95;5.97;;;;;;;;;;5047805;28;20400;-75
2022/05/15 00:33:38;;;;;;;31.90;6.57;;;;;;;;;;5047981;28;20055;-76
2022/05/15 00:36:04;;;;;;;24.92;6.25;;;;;;;;;;5037789;28;20064;-76
2022/05/15 00:38:30;;;;;;;30.20;8.77;;;;;;;;;;5015270;28;20036;-75
2022/05/15 00:40:56;;;;;;;39.08;6.97;;;;;;;;;;5045657;28;20119;-75
2022/05/15 00:43:41;;;;;;;28.08;6.10;;;;;;;;;;5045832;28;20413;-76
2022/05/15 00:46:09;;;;;;;25.77;5.93;;;;;;;;;;5051131;28;20025;-76
2022/05/15 00:48:35;;;;;;;35.13;7.55;;;;;;;;;;5049527;28;20039;-76
2022/05/15 00:51:04;;;;;;;24.40;6.20;;;;;;;;;;5050021;28;20021;-76
2022/05/15 00:53:30;;;;;;;32.78;7.63;;;;;;;;;;5031221;28;20037;-76
2022/05/15 00:55:59;;;;;;;29.92;6.57;;;;;;;;;;5049259;28;20373;-75
2022/05/15 00:58:29;;;;;;;23.27;6.20;;;;;;;;;;5033676;28;20037;-75
2022/05/15 01:00:56;;;;;;;29.50;6.50;;;;;;;;;;5048708;28;20032;-76
2022/05/15 01:03:22;;;;;;;25.77;6.45;;;;;;;;;;5037659;28;20033;-76
2022/05/15 01:05:50;;;;;;;30.65;5.65;;;;;;;;;;5045586;28;20032;-76
2022/05/15 01:08:16;;;;;;;25.45;6.57;;;;;;;;;;5033664;28;20025;-76
2022/05/15 01:10:43;;;;;;;24.90;5.70;;;;;;;;;;5047753;28;20159;-76
2022/05/15 01:13:10;;;;;;;25.35;6.65;;;;;;;;;;5047271;28;20104;-76
2022/05/15 01:15:37;;;;;;;28.02;5.78;;;;;;;;;;5029416;28;20052;-76
2022/05/15 01:18:04;;;;;;;33.25;7.05;;;;;;;;;;5047710;28;20033;-76
2022/05/15 01:20:30;;;;;;;25.40;6.45;;;;;;;;;;5027774;28;20511;-75
2022/05/15 01:22:57;;;;;;;24.02;7.18;;;;;;;;;;5047821;28;20100;-76
2022/05/15 01:25:25;;;;;;;28.80;6.43;;;;;;;;;;5030932;28;20037;-76
2022/05/15 01:27:59;;;;;;;24.33;6.53;;;;;;;;;;5043816;28;20108;-76
2022/05/15 01:30:25;;;;;;;27.10;5.97;;;;;;;;;;5033437;28;20445;-75
2022/05/15 01:32:52;;;;;;;25.60;6.82;;;;;;;;;;5048375;28;20037;-76
2022/05/15 01:35:18;;;;;;;20.42;7.15;;;;;;;;;;5042972;28;20036;-76
2022/05/15 01:37:44;;;;;;;26.05;6.38;;;;;;;;;;5043345;28;20049;-76
2022/05/15 01:40:10;;;;;;;24.90;6.65;;;;;;;;;;5048961;28;20029;-76
2022/05/15 01:42:37;;;;;;;27.95;8.15;;;;;;;;;;5028961;28;20029;-75
2022/05/15 01:45:05;;;;;;;18.25;6.38;;;;;;;;;;5051258;28;20487;-76
2022/05/15 01:47:31;;;;;;;24.67;5.55;;;;;;;;;;5037651;28;20036;-76
2022/05/15 01:49:57;;;;;;;27.25;5.80;;;;;;;;;;5049489;28;20025;-75
2022/05/15 01:52:23;;;;;;;20.08;5.03;;;;;;;;;;5050101;28;20087;-76
2022/05/15 01:54:50;;;;;;;24.88;5.72;;;;;;;;;;5051552;28;20029;-75
2022/05/15 01:57:16;;;;;;;22.50;7.88;;;;;;;;;;5047279;28;20056;-75
2022/05/15 01:59:42;;;;;;;23.58;6.07;;;;;;;;;;5043137;28;20048;-75
2022/05/15 02:02:08;;;;;;;22.52;6.38;;;;;;;;;;5057305;28;20443;-75
2022/05/15 02:04:34;;;;;;;26.58;5.35;;;;;;;;;;5042383;28;20500;-75
2022/05/15 02:07:01;;;;;;;23.83;5.53;;;;;;;;;;5049668;28;20033;-75
2022/05/15 02:09:27;;;;;;;33.85;7.03;;;;;;;;;;5047492;28;20041;-75
2022/05/15 02:11:53;;;;;;;27.10;6.63;;;;;;;;;;5048072;28;20550;-76
2022/05/15 02:14:19;;;;;;;29.75;8.90;;;;;;;;;;5038338;28;20480;-76
2022/05/15 02:16:45;;;;;;;21.20;6.40;;;;;;;;;;5056388;28;20394;-75
2022/05/15 02:19:11;;;;;;;21.98;5.68;;;;;;;;;;5046435;28;20048;-76
2022/05/15 02:21:37;;;;;;;20.50;6.68;;;;;;;;;;5024735;28;20113;-76
2022/05/15 02:24:03;;;;;;;26.80;6.75;;;;;;;;;;5032755;28;20047;-76
2022/05/15 02:26:29;;;;;;;19.52;6.28;;;;;;;;;;5025296;28;20123;-76
2022/05/15 02:28:56;;;;;;;21.48;5.97;;;;;;;;;;5023085;28;20029;-76
2022/05/15 02:31:22;;;;;;;20.17;6.25;;;;;;;;;;5048292;28;20043;-76
2022/05/15 02:33:48;;;;;;;21.45;5.85;;;;;;;;;;5042182;28;20028;-76
2022/05/15 02:36:14;;;;;;;26.98;6.90;;;;;;;;;;5049404;28;20382;-75
2022/05/15 02:38:40;;;;;;;24.73;6.43;;;;;;;;;;5028128;28;20743;-75
2022/05/15 02:41:07;;;;;;;18.00;5.60;;;;;;;;;;5049075;28;20640;-76
2022/05/15 02:43:33;;;;;;;24.85;6.93;;;;;;;;;;5047792;28;20037;-76
2022/05/15 02:45:59;;;;;;;23.85;7.07;;;;;;;;;;5055927;28;20028;-76
2022/05/15 02:51:10;;;;;;;21.50;6.53;;;;;;;;;;5048904;28;20035;-75
2022/05/15 02:53:41;;;;;;;30.83;6.32;;;;;;;;;;5029702;28;21039;-75
2022/05/15 02:56:10;;;;;;;26.38;5.95;;;;;;;;;;5043215;28;20049;-75
2022/05/15 02:58:36;;;;;;;16.98;5.03;;;;;;;;;;5047814;28;20036;-75
2022/05/15 03:01:03;;;;;;;24.13;5.53;;;;;;;;;;5054838;28;20028;-75
2022/05/15 03:03:29;;;;;;;21.52;5.63;;;;;;;;;;5056462;28;20060;-75
2022/05/15 03:05:55;;;;;;;28.23;6.40;;;;;;;;;;5053938;28;20041;-75
2022/05/15 03:08:21;;;;;;;21.38;5.85;;;;;;;;;;5032885;28;20025;-75
2022/05/15 03:10:47;;;;;;;21.35;5.97;;;;;;;;;;5052505;28;20029;-76
2022/05/15 03:13:13;;;;;;;20.58;5.82;;;;;;;;;;5023731;28;20061;-75
2022/05/15 03:15:39;;;;;;;19.52;5.35;;;;;;;;;;5050654;28;20028;-76
2022/05/15 03:18:06;;;;;;;23.25;6.57;;;;;;;;;;5056720;28;20122;-76
2022/05/15 03:20:32;;;;;;;28.73;6.95;;;;;;;;;;5032211;28;20045;-75
2022/05/15 03:22:59;;;;;;;30.27;6.63;;;;;;;;;;5036579;28;20025;-75
2022/05/15 03:25:27;;;;;;;20.10;5.75;;;;;;;;;;5051469;28;20033;-75
2022/05/15 03:27:54;;;;;;;24.02;5.75;;;;;;;;;;5053203;28;20029;-76
2022/05/15 03:30:20;;;;;;;27.00;5.70;;;;;;;;;;5035084;28;20025;-75
2022/05/15 03:32:46;;;;;;;26.25;6.85;;;;;;;;;;5034917;28;20029;-76
2022/05/15 03:35:14;;;;;;;27.05;6.90;;;;;;;;;;5049642;28;20038;-75
2022/05/15 03:37:40;;;;;;;22.05;6.68;;;;;;;;;;5031505;28;20041;-75
2022/05/15 03:40:07;;;;;;;23.90;5.93;;;;;;;;;;5035938;28;20094;-76
2022/05/15 03:42:33;;;;;;;20.65;6.18;;;;;;;;;;5046574;28;20337;-76
2022/05/15 03:44:59;;;;;;;26.67;7.35;;;;;;;;;;5035226;28;20033;-76
2022/05/15 03:47:25;;;;;;;25.63;7.25;;;;;;;;;;5035167;28;20029;-75
2022/05/15 03:49:53;;;;;;;30.70;8.15;;;;;;;;;;5037357;28;20068;-76
2022/05/15 03:52:19;;;;;;;19.73;6.32;;;;;;;;;;5042596;28;20346;-76
2022/05/15 03:54:46;;;;;;;25.65;6.65;;;;;;;;;;5052586;28;20044;-77
2022/05/15 03:57:12;;;;;;;28.83;6.88;;;;;;;;;;5063685;28;20033;-75
2022/05/15 03:59:41;;;;;;;28.08;7.45;;;;;;;;;;5033757;28;20396;-73
2022/05/15 04:02:08;;;;;;;34.88;13.52;;;;;;;;;;5052913;28;20025;-73
2022/05/15 04:04:34;;;;;;;40.08;13.27;;;;;;;;;;5053095;28;20055;-73
2022/05/15 04:07:00;;;;;;;30.85;7.63;;;;;;;;;;5050871;28;20037;-73
2022/05/15 04:09:27;;;;;;;32.33;7.88;;;;;;;;;;5052016;28;20035;-73
2022/05/15 04:11:53;;;;;;;31.45;6.88;;;;;;;;;;5042412;28;20036;-73
2022/05/15 04:14:21;;;;;;;24.05;6.18;;;;;;;;;;5051609;28;20033;-73
2022/05/15 04:16:47;;;;;;;26.95;8.43;;;;;;;;;;5053000;28;20126;-75
2022/05/15 04:19:13;;;;;;;21.00;5.88;;;;;;;;;;5053665;28;20481;-76
2022/05/15 04:21:42;;;;;;;25.63;6.57;;;;;;;;;;5025294;28;20118;-75
2022/05/15 04:24:10;;;;;;;34.38;6.93;;;;;;;;;;5049990;28;20040;-75
2022/05/15 04:26:37;;;;;;;27.60;7.30;;;;;;;;;;5052055;28;20033;-75
2022/05/15 04:29:03;;;;;;;28.35;6.72;;;;;;;;;;5052745;28;20029;-76
2022/05/15 04:31:30;;;;;;;27.65;6.75;;;;;;;;;;5038103;28;20029;-75
2022/05/15 04:33:56;;;;;;;32.55;7.07;;;;;;;;;;5052179;28;20396;-74
2022/05/15 04:36:22;;;;;;;26.55;5.68;;;;;;;;;;5049625;28;20076;-75
2022/05/15 04:38:48;;;;;;;35.55;12.57;;;;;;;;;;5033724;28;20143;-74
2022/05/15 04:41:14;;;;;;;35.03;10.52;;;;;;;;;;5031298;28;20558;-74
2022/05/15 04:43:40;;;;;;;53.63;22.67;;;;;;;;;;5050226;28;20105;-73
2022/05/15 04:46:07;;;;;;;25.45;7.53;;;;;;;;;;5041273;28;20059;-75
2022/05/15 04:48:34;;;;;;;28.42;7.43;;;;;;;;;;5044852;28;20029;-75
2022/05/15 04:51:00;;;;;;;37.30;6.97;;;;;;;;;;5029352;28;20151;-74
2022/05/15 04:53:30;;;;;;;30.55;6.68;;;;;;;;;;5046335;28;20087;-75
2022/05/15 04:55:57;;;;;;;35.08;6.97;;;;;;;;;;5042273;28;20389;-74
2022/05/15 04:58:23;;;;;;;36.80;9.20;;;;;;;;;;5044581;28;20029;-74
2022/05/15 05:00:49;;;;;;;28.33;7.53;;;;;;;;;;5060157;28;20035;-75
2022/05/15 05:03:15;;;;;;;25.02;6.53;;;;;;;;;;5053897;28;20043;-75
2022/05/15 05:05:41;;;;;;;24.58;6.68;;;;;;;;;;5050019;28;20469;-74
2022/05/15 05:08:08;;;;;;;40.15;8.10;;;;;;;;;;5027371;28;20041;-75
2022/05/15 05:10:34;;;;;;;29.90;8.23;;;;;;;;;;5037948;28;20094;-75
2022/05/15 05:13:00;;;;;;;26.92;9.00;;;;;;;;;;5041313;28;20033;-76
2022/05/15 05:15:26;;;;;;;23.08;6.03;;;;;;;;;;5047833;28;20124;-75
2022/05/15 05:17:52;;;;;;;24.98;6.07;;;;;;;;;;5018065;28;20774;-75
2022/05/15 05:20:18;;;;;;;28.25;6.35;;;;;;;;;;5041210;28;20068;-73
2022/05/15 05:22:44;;;;;;;41.53;16.17;;;;;;;;;;5049441;28;20089;-73
2022/05/15 05:25:11;;;;;;;37.00;12.75;;;;;;;;;;5030220;28;20021;-73
2022/05/15 05:27:38;;;;;;;21.42;5.65;;;;;;;;;;5047810;28;20028;-73
2022/05/15 05:30:05;;;;;;;31.73;7.10;;;;;;;;;;5050314;28;20100;-75
2022/05/15 05:32:31;;;;;;;30.92;7.55;;;;;;;;;;5044119;28;20036;-75
2022/05/15 05:34:57;;;;;;;27.77;7.55;;;;;;;;;;5027849;28;20116;-75
2022/05/15 05:37:23;;;;;;;35.72;7.28;;;;;;;;;;5049719;28;20041;-75
2022/05/15 05:39:50;;;;;;;42.63;6.75;;;;;;;;;;5041939;28;20029;-75
2022/05/15 05:42:16;;;;;;;26.60;5.65;;;;;;;;;;5049075;28;20108;-75
2022/05/15 05:44:42;;;;;;;23.50;6.72;;;;;;;;;;5032965;28;20029;-75
2022/05/15 05:47:08;;;;;;;29.70;6.45;;;;;;;;;;5056427;28;20029;-75
2022/05/15 05:49:35;;;;;;;34.78;7.25;;;;;;;;;;5048721;28;20827;-75
2022/05/15 05:52:01;;;;;;;27.65;6.63;;;;;;;;;;5050412;28;20536;-75
2022/05/15 05:54:27;;;;;;;26.52;6.80;;;;;;;;;;5048078;28;20033;-75
2022/05/15 05:56:53;;;;;;;35.75;6.75;;;;;;;;;;5048797;28;20105;-73
2022/05/15 05:59:19;;;;;;;30.42;7.63;;;;;;;;;;5048206;28;20033;-74
2022/05/15 06:01:45;;;;;;;33.90;7.10;;;;;;;;;;5054790;28;20036;-74
2022/05/15 06:06:56;;;;;;;30.10;5.88;;;;;;;;;;5047680;28;20688;-74
2022/05/15 06:09:22;;;;;;;31.95;6.65;;;;;;;;;;5028893;28;20064;-74
2022/05/15 06:11:48;;;;;;;28.85;5.60;;;;;;;;;;5051061;28;20579;-74
2022/05/15 06:14:14;;;;;;;36.50;7.18;;;;;;;;;;5047141;28;20669;-74
2022/05/15 06:16:40;;;;;;;29.05;6.60;;;;;;;;;;5056163;28;20440;-74
2022/05/15 06:19:08;;;;;;;28.63;5.75;;;;;;;;;;5045723;28;20084;-74
2022/05/15 06:21:34;;;;;;;34.20;7.05;;;;;;;;;;5037588;28;20904;-74
2022/05/15 06:24:00;;;;;;;24.85;6.15;;;;;;;;;;5048745;28;20055;-74
2022/05/15 06:26:26;;;;;;;24.20;5.25;;;;;;;;;;5039255;28;20036;-75
2022/05/15 06:28:52;;;;;;;29.20;5.60;;;;;;;;;;5048694;28;20034;-74
2022/05/15 06:31:18;;;;;;;25.90;6.30;;;;;;;;;;5061594;28;20048;-74
2022/05/15 06:33:44;;;;;;;30.17;6.07;;;;;;;;;;5032250;28;20065;-74
2022/05/15 06:36:11;;;;;;;30.60;6.80;;;;;;;;;;5025819;28;20041;-75
2022/05/15 06:38:40;;;;;;;23.35;6.65;;;;;;;;;;5047586;28;20120;-75
2022/05/15 06:41:07;;;;;;;26.10;5.88;;;;;;;;;;5046923;28;20032;-74
2022/05/15 06:43:34;;;;;;;20.30;5.40;;;;;;;;;;5047452;28;20036;-74
2022/05/15 06:46:00;;;;;;;26.58;5.35;;;;;;;;;;5039279;28;20090;-75
2022/05/15 06:48:26;;;;;;;20.38;5.20;;;;;;;;;;5052759;28;20048;-75
2022/05/15 06:50:52;;;;;;;26.02;5.70;;;;;;;;;;5046964;28;20033;-75
2022/05/15 06:53:18;;;;;;;23.70;6.35;;;;;;;;;;5044925;28;20478;-75
2022/05/15 06:58:29;;;;;;;21.23;4.72;;;;;;;;;;5032748;28;20064;-74
2022/05/15 07:00:55;;;;;;;23.83;5.05;;;;;;;;;;5049489;28;20043;-75
2022/05/15 07:03:21;;;;;;;21.55;5.25;;;;;;;;;;5049513;28;20487;-75
2022/05/15 07:05:48;;;;;;;18.25;4.70;;;;;;;;;;5045887;28;20083;-75
2022/05/15 07:08:15;;;;;;;20.15;5.55;;;;;;;;;;5040733;28;20636;-75
2022/05/15 07:10:41;;;;;;;25.65;5.25;;;;;;;;;;5047237;28;20166;-75
2022/05/15 07:13:08;;;;;;;23.23;4.63;;;;;;;;;;5022004;28;20540;-75
2022/05/15 07:15:34;;;;;;;23.83;5.95;;;;;;;;;;5052530;28;20507;-74
2022/05/15 07:18:00;;;;;;;21.30;5.65;;;;;;;;;;5056277;28;20064;-74
2022/05/15 07:20:26;;;;;;;21.17;5.50;;;;;;;;;;5047710;28;20061;-74
2022/05/15 07:22:52;;;;;;;17.50;5.00;;;;;;;;;;5029521;28;20025;-77
2022/05/15 07:25:18;;;;;;;21.83;5.50;;;;;;;;;;5046703;28;20037;-76
2022/05/15 07:27:44;;;;;;;21.75;4.68;;;;;;;;;;5030572;28;20060;-76
2022/05/15 07:30:10;;;;;;;16.25;5.05;;;;;;;;;;5013347;28;20033;-76
2022/05/15 07:32:37;;;;;;;23.30;5.78;;;;;;;;;;5048006;28;20469;-77
2022/05/15 07:35:03;;;;;;;14.00;4.13;;;;;;;;;;5041394;28;20033;-77
2022/05/15 07:37:29;;;;;;;22.02;6.40;;;;;;;;;;5028504;28;20251;-77
2022/05/15 07:39:55;;;;;;;14.82;4.95;;;;;;;;;;5041981;28;20396;-77
2022/05/15 07:42:21;;;;;;;17.65;5.53;;;;;;;;;;5038918;28;20027;-77
2022/05/15 07:44:48;;;;;;;19.95;5.50;;;;;;;;;;5045106;28;20044;-76
2022/05/15 07:47:14;;;;;;;16.30;5.22;;;;;;;;;;5050347;28;20039;-76
2022/05/15 07:49:42;;;;;;;11.18;3.78;;;;;;;;;;5045060;28;20033;-75
2022/05/15 07:52:08;;;;;;;22.02;8.32;;;;;;;;;;5040457;28;20053;-76
2022/05/15 07:54:34;;;;;;;18.15;5.40;;;;;;;;;;5050383;28;20041;-75
2022/05/15 07:57:01;;;;;;;17.52;4.55;;;;;;;;;;5031987;28;20049;-75
2022/05/15 07:59:29;;;;;;;18.48;4.03;;;;;;;;;;5017643;28;20030;-75
2022/05/15 08:01:55;;;;;;;15.70;4.75;;;;;;;;;;5046668;28;20041;-76
2022/05/15 08:04:22;;;;;;;13.30;4.32;;;;;;;;;;5051978;28;20041;-76
2022/05/15 08:09:33;;;;;;;21.85;5.07;;;;;;;;;;5051357;28;20773;-81
2022/05/15 08:11:59;;;;;;;19.25;4.72;;;;;;;;;;5052156;28;20117;-78
2022/05/15 08:14:25;;;;;;;14.98;4.43;;;;;;;;;;5052227;28;20036;-79
2022/05/15 08:16:51;;;;;;;19.77;4.40;;;;;;;;;;5050803;28;20033;-78
2022/05/15 08:24:48;;;;;;;13.98;4.10;;;;;;;;;;5046807;28;20048;-76
2022/05/15 08:27:14;;;;;;;16.13;4.63;;;;;;;;;;5038846;28;20115;-77
2022/05/15 08:29:41;;;;;;;14.45;4.70;;;;;;;;;;5049695;28;20025;-77
2022/05/15 08:32:08;;;;;;;20.17;5.53;;;;;;;;;;5052328;28;20048;-78
2022/05/15 08:34:35;;;;;;;14.90;4.07;;;;;;;;;;5052354;28;20025;-78
2022/05/15 08:37:01;;;;;;;17.65;4.20;;;;;;;;;;5034218;28;20037;-78
2022/05/15 08:39:29;;;;;;;25.50;12.60;;;;;;;;;;5052379;28;20041;-76
2022/05/15 08:41:59;;;;;;;19.50;4.97;;;;;;;;;;5051608;28;20029;-78
2022/05/15 08:44:29;;;;;;;23.35;5.05;;;;;;;;;;5051064;28;20095;-78
2022/05/15 08:47:03;;;;;;;14.52;4.00;;;;;;;;;;5046032;28;20056;-78
2022/05/15 08:49:57;;;;;;;18.15;4.20;;;;;;;;;;5044697;28;20804;-77
2022/05/15 08:52:32;;;;;;;16.00;4.15;;;;;;;;;;5003073;28;20048;-78
2022/05/15 08:55:06;;;;;;;17.17;5.78;;;;;;;;;;5048291;28;20115;-78
2022/05/15 08:57:40;;;;;;;16.45;4.43;;;;;;;;;;5048623;28;20519;-77
2022/05/15 09:00:11;;;;;;;15.27;4.22;;;;;;;;;;5045701;28;20057;-78
2022/05/15 09:02:41;;;;;;;15.50;4.22;;;;;;;;;;5039001;28;20224;-75
2022/05/15 09:05:08;;;;;;;17.95;4.68;;;;;;;;;;5044428;28;20121;-77
2022/05/15 09:07:52;;;;;;;17.30;4.78;;;;;;;;;;5049464;28;20033;-76
2022/05/15 09:10:27;;;;;;;17.20;3.80;;;;;;;;;;5040571;28;20021;-77
2022/05/15 09:13:08;;;;;;;19.83;4.57;;;;;;;;;;5027664;28;20477;-77
2022/05/15 09:15:36;;;;;;;16.58;5.25;;;;;;;;;;5043915;28;20397;-75
2022/05/15 09:18:05;;;;;;;26.58;11.80;;;;;;;;;;5048372;28;20033;-76
2022/05/15 09:20:43;;;;;;;16.60;4.70;;;;;;;;;;5048863;28;20492;-76
2022/05/15 09:23:17;;;;;;;19.75;4.93;;;;;;;;;;5046145;28;20028;-75
2022/05/15 09:25:50;;;;;;;17.27;5.03;;;;;;;;;;5045620;28;20028;-75
2022/05/15 09:28:16;;;;;;;15.75;4.47;;;;;;;;;;5048609;28;20029;-74
2022/05/15 09:30:43;;;;;;;14.30;4.07;;;;;;;;;;5052679;28;20069;-75
2022/05/15 09:33:27;;;;;;;19.60;4.97;;;;;;;;;;5050991;28;20051;-74
2022/05/15 09:36:13;;;;;;;13.70;4.68;;;;;;;;;;5045606;28;20029;-74
2022/05/15 09:38:39;;;;;;;13.13;4.18;;;;;;;;;;5050110;28;20044;-73
2022/05/15 09:44:09;;;;;;;17.48;4.40;;;;;;;;;;5045090;28;20075;-77
2022/05/15 09:46:35;;;;;;;16.35;4.45;;;;;;;;;;5050454;28;20087;-78
2022/05/15 09:49:06;;;;;;;22.73;9.93;;;;;;;;;;5032714;28;20033;-77
2022/05/15 09:51:44;;;;;;;22.80;6.63;;;;;;;;;;5051693;28;20032;-77
2022/05/15 09:54:30;;;;;;;12.95;4.57;;;;;;;;;;5042046;28;20056;-78
2022/05/15 09:57:09;;;;;;;16.77;5.40;;;;;;;;;;5036335;28;20072;-74
2022/05/15 09:59:35;;;;;;;16.55;4.63;;;;;;;;;;5045616;28;20029;-75
2022/05/15 10:02:01;;;;;;;16.02;3.80;;;;;;;;;;5054831;28;20063;-76
2022/05/15 10:04:32;;;;;;;13.93;3.95;;;;;;;;;;5049536;28;20083;-75
2022/05/15 10:07:06;;;;;;;14.03;4.60;;;;;;;;;;5046095;28;20033;-76
2022/05/15 10:09:34;;;;;;;19.67;5.28;;;;;;;;;;5039806;28;20124;-76
2022/05/15 10:12:16;;;;;;;14.80;4.10;;;;;;;;;;5040142;28;20033;-75
2022/05/15 10:14:45;;;;;;;14.60;4.43;;;;;;;;;;5043245;28;20064;-76
2022/05/15 10:17:12;;;;;;;15.95;4.68;;;;;;;;;;5045104;28;20469;-76
2022/05/15 10:19:50;;;;;;;15.48;4.43;;;;;;;;;;5040742;28;20048;-79
2022/05/15 10:22:25;;;;;;;18.30;6.45;;;;;;;;;;5047031;28;20631;-76
2022/05/15 10:24:52;;;;;;;22.88;11.10;;;;;;;;;;5047895;28;20032;-76
2022/05/15 10:27:27;;;;;;;17.45;4.72;;;;;;;;;;5043659;28;20546;-76
2022/05/15 10:30:03;;;;;;;13.98;3.75;;;;;;;;;;5050272;28;20029;-76
2022/05/15 10:33:01;;;;;;;13.65;3.50;;;;;;;;;;5046174;28;20116;-76
2022/05/15 10:35:48;;;;;;;13.93;4.43;;;;;;;;;;4996647;28;20052;-76
2022/05/15 10:38:33;;;;;;;16.83;4.05;;;;;;;;;;5031083;28;20084;-76
2022/05/15 10:41:28;;;;;;;16.02;4.70;;;;;;;;;;5049636;28;20032;-77
2022/05/15 10:44:06;;;;;;;18.63;4.30;;;;;;;;;;5036667;28;20037;-77
2022/05/15 10:46:38;;;;;;;12.50;3.85;;;;;;;;;;5046715;28;20496;-77
2022/05/15 10:49:15;;;;;;;20.08;4.32;;;;;;;;;;5032761;28;20506;-78
2022/05/15 10:51:47;;;;;;;18.33;3.95;;;;;;;;;;5047413;28;20103;-76
2022/05/15 10:57:24;;;;;;;11.30;3.15;;;;;;;;;;5047389;28;20087;-76
2022/05/15 10:59:53;;;;;;;15.35;4.07;;;;;;;;;;5043210;28;20171;-76
2022/05/15 11:02:25;;;;;;;16.30;4.72;;;;;;;;;;5046792;28;20033;-78
2022/05/15 11:05:13;;;;;;;36.50;18.75;;;;;;;;;;5050049;28;20040;-77
2022/05/15 11:07:55;;;;;;;19.73;4.72;;;;;;;;;;5032787;28;20569;-77
2022/05/15 11:10:27;;;;;;;11.32;2.92;;;;;;;;;;5033629;28;20029;-76
2022/05/15 11:13:12;;;;;;;15.57;3.85;;;;;;;;;;5037424;28;20121;-77
2022/05/15 11:15:57;;;;;;;13.75;4.07;;;;;;;;;;5049565;28;20029;-77
2022/05/15 11:18:49;;;;;;;15.68;3.67;;;;;;;;;;5035188;28;20037;-76
2022/05/15 11:21:19;;;;;;;20.08;4.28;;;;;;;;;;5039654;28;20045;-76
2022/05/15 11:23:48;;;;;;;15.95;4.43;;;;;;;;;;5041168;28;20032;-77
2022/05/15 11:26:23;;;;;;;14.18;4.35;;;;;;;;;;5029926;28;20025;-77
2022/05/15 11:28:51;;;;;;;12.85;3.55;;;;;;;;;;5051713;28;20029;-76
2022/05/15 11:31:28;;;;;;;17.08;4.00;;;;;;;;;;5054008;28;20025;-77
2022/05/15 11:34:05;;;;;;;14.90;4.03;;;;;;;;;;5042662;28;20099;-77
2022/05/15 11:36:35;;;;;;;16.73;5.15;;;;;;;;;;5049848;28;20116;-76
2022/05/15 11:39:06;;;;;;;14.35;3.40;;;;;;;;;;5031703;28;20037;-76
2022/05/15 11:41:32;;;;;;;16.42;4.03;;;;;;;;;;5053127;28;20025;-75
2022/05/15 11:43:59;;;;;;;13.32;3.40;;;;;;;;;;5052215;28;20431;-76
2022/05/15 11:46:43;;;;;;;14.10;3.58;;;;;;;;;;5060185;28;20113;-77
2022/05/15 11:49:14;;;;;;;14.05;4.10;;;;;;;;;;5046750;28;20029;-76
2022/05/15 11:51:40;;;;;;;11.68;3.17;;;;;;;;;;5048857;28;20021;-76
2022/05/15 11:54:07;;;;;;;13.55;3.58;;;;;;;;;;5052801;28;20025;-76
2022/05/15 11:56:41;;;;;;;14.35;4.32;;;;;;;;;;5029450;28;20072;-76
2022/05/15 11:59:18;;;;;;;18.13;3.95;;;;;;;;;;5048752;28;20104;-76
2022/05/15 12:01:55;;;;;;;12.05;3.67;;;;;;;;;;5061750;28;20036;-76
2022/05/15 12:04:21;;;;;;;14.60;3.40;;;;;;;;;;5047547;28;20036;-76
2022/05/15 12:07:10;;;;;;;16.00;4.60;;;;;;;;;;5049201;28;20061;-76
2022/05/15 12:09:44;;;;;;;13.32;4.38;;;;;;;;;;5033968;28;20036;-75
2022/05/15 12:12:28;;;;;;;16.23;3.63;;;;;;;;;;5030720;28;20473;-76
2022/05/15 12:15:23;;;;;;;13.38;4.07;;;;;;;;;;5033815;28;20394;-76
2022/05/15 12:17:49;;;;;;;14.43;3.53;;;;;;;;;;5024183;28;20049;-75
2022/05/15 12:20:18;;;;;;;26.75;14.02;;;;;;;;;;5046644;28;20060;-76
2022/05/15 12:22:47;;;;;;;15.30;4.93;;;;;;;;;;5043920;28;20040;-79
2022/05/15 12:25:14;;;;;;;12.77;3.53;;;;;;;;;;5024535;28;20025;-77
2022/05/15 12:28:50;;;;;;;15.77;4.18;;;;;;;;;;5050555;28;20044;-76
2022/05/15 12:30:45;;;;;;;11.80;3.47;;;;;;;;;;5042339;28;20036;-78
2022/05/15 12:33:12;;;;;;;19.90;4.00;;;;;;;;;;5067115;28;20021;-79
2022/05/15 12:35:40;;;;;;;11.70;3.47;;;;;;;;;;5051926;28;20056;-78
2022/05/15 12:38:07;;;;;;;14.48;3.85;;;;;;;;;;5048279;28;20045;-79
2022/05/15 12:40:37;;;;;;;14.38;3.00;;;;;;;;;;5048545;28;20381;-79
2022/05/15 12:43:17;;;;;;;18.58;7.95;;;;;;;;;;5049037;28;20052;-77
2022/05/15 12:45:43;;;;;;;16.80;7.80;;;;;;;;;;5054066;28;20034;-75
2022/05/15 12:48:11;;;;;;;16.88;3.45;;;;;;;;;;5058212;28;20111;-79
2022/05/15 12:50:56;;;;;;;12.10;2.85;;;;;;;;;;5055724;28;20033;-79
2022/05/15 12:53:27;;;;;;;12.55;3.28;;;;;;;;;;5045625;28;20040;-79
2022/05/15 12:55:54;;;;;;;12.48;3.35;;;;;;;;;;5052189;28;20021;-78
2022/05/15 12:58:31;;;;;;;12.20;3.05;;;;;;;;;;5050026;28;20037;-78
2022/05/15 13:00:57;;;;;;;11.15;2.88;;;;;;;;;;5049409;28;20112;-79
2022/05/15 13:03:23;;;;;;;17.40;2.97;;;;;;;;;;5045278;28;20370;-78
2022/05/15 13:05:51;;;;;;;13.85;2.90;;;;;;;;;;5045832;28;20040;-79
2022/05/15 13:08:17;;;;;;;11.77;3.70;;;;;;;;;;5044710;28;20477;-79
2022/05/15 13:10:54;;;;;;;15.32;3.22;;;;;;;;;;5048039;28;20029;-79
2022/05/15 13:13:24;;;;;;;14.70;3.78;;;;;;;;;;5045601;28;20048;-79
2022/05/15 13:15:52;;;;;;;16.83;4.25;;;;;;;;;;5039786;28;20049;-79
2022/05/15 13:18:19;;;;;;;15.00;2.88;;;;;;;;;;5050758;28;20080;-77
2022/05/15 13:20:49;;;;;;;12.70;3.15;;;;;;;;;;5049527;28;20687;-83
2022/05/15 13:23:15;;;;;;;14.25;5.45;;;;;;;;;;5040628;28;20485;-78
2022/05/15 13:25:43;;;;;;;11.80;3.38;;;;;;;;;;5050238;28;20125;-76
2022/05/15 13:28:09;;;;;;;9.10;2.63;;;;;;;;;;5046178;28;20029;-77
2022/05/15 13:30:36;;;;;;;15.45;4.30;;;;;;;;;;5052937;28;20047;-76
2022/05/15 13:33:07;;;;;;;12.05;3.08;;;;;;;;;;5044834;28;20059;-78
2022/05/15 13:35:34;;;;;;;17.70;3.40;;;;;;;;;;5043004;28;22252;-79
2022/05/15 13:38:13;;;;;;;12.90;3.20;;;;;;;;;;5037025;28;20038;-79
2022/05/15 13:43:31;;;;;;;9.85;3.10;;;;;;;;;;5045672;28;20059;-80
2022/05/15 13:46:03;;;;;;;19.23;3.42;;;;;;;;;;5026974;28;20413;-79
2022/05/15 13:48:29;;;;;;;14.10;3.55;;;;;;;;;;5052385;28;20052;-80
2022/05/15 13:51:00;;;;;;;15.05;3.47;;;;;;;;;;5052406;28;20037;-77
2022/05/15 13:53:29;;;;;;;14.82;3.08;;;;;;;;;;5031863;28;20393;-77
2022/05/15 13:56:00;;;;;;;9.88;2.67;;;;;;;;;;5051036;28;20118;-76
2022/05/15 13:58:47;;;;;;;10.43;2.92;;;;;;;;;;5044772;28;20045;-76
2022/05/15 14:01:20;;;;;;;14.13;2.58;;;;;;;;;;5050496;28;20056;-77
2022/05/15 14:03:46;;;;;;;11.30;2.83;;;;;;;;;;5048640;28;20381;-77
2022/05/15 14:06:14;;;;;;;14.02;2.78;;;;;;;;;;5049592;28;20457;-77
2022/05/15 14:08:54;;;;;;;13.23;3.05;;;;;;;;;;5047027;28;20358;-77
2022/05/15 14:11:20;;;;;;;18.40;3.75;;;;;;;;;;5044688;28;20036;-77
2022/05/15 14:13:48;;;;;;;14.00;5.30;;;;;;;;;;5044200;28;20033;-74
2022/05/15 14:16:18;;;;;;;10.75;3.50;;;;;;;;;;5047138;28;20104;-77
2022/05/15 14:18:44;;;;;;;10.55;3.25;;;;;;;;;;5029570;28;20034;-76
2022/05/15 14:21:13;;;;;;;10.68;2.90;;;;;;;;;;5038390;28;20076;-76
2022/05/15 14:23:39;;;;;;;10.20;3.30;;;;;;;;;;5050966;28;20116;-76
2022/05/15 14:26:06;;;;;;;10.30;2.90;;;;;;;;;;5049442;28;20104;-75
2022/05/15 14:28:33;;;;;;;11.23;3.15;;;;;;;;;;5037655;28;20025;-75
2022/05/15 14:30:59;;;;;;;10.65;3.33;;;;;;;;;;5049356;28;20431;-75
2022/05/15 14:33:26;;;;;;;9.98;2.70;;;;;;;;;;5047168;28;20108;-76
2022/05/15 14:36:06;;;;;;;13.90;2.90;;;;;;;;;;5030666;28;20069;-76
2022/05/15 14:38:32;;;;;;;8.52;2.47;;;;;;;;;;5040710;28;20037;-76
2022/05/15 14:40:59;;;;;;;12.25;2.85;;;;;;;;;;5048463;28;20033;-75
2022/05/15 14:43:26;;;;;;;10.57;2.55;;;;;;;;;;5037541;28;20044;-76
2022/05/15 14:45:55;;;;;;;12.43;3.17;;;;;;;;;;5056557;28;20961;-76
2022/05/15 14:48:24;;;;;;;14.38;3.05;;;;;;;;;;5046496;28;20557;-75
2022/05/15 14:50:51;;;;;;;10.15;2.60;;;;;;;;;;5042362;28;20040;-76
2022/05/15 14:53:19;;;;;;;9.88;3.00;;;;;;;;;;5047031;28;20067;-76
2022/05/15 14:58:30;;;;;;;18.63;7.28;;;;;;;;;;5031189;28;20056;-74
2022/05/15 15:00:56;;;;;;;13.10;3.75;;;;;;;;;;5042268;28;20102;-74
2022/05/15 15:03:23;;;;;;;11.52;3.70;;;;;;;;;;5048093;28;20040;-74
2022/05/15 15:05:49;;;;;;;15.05;3.75;;;;;;;;;;5047538;28;20037;-77
2022/05/15 15:08:17;;;;;;;10.75;2.63;;;;;;;;;;5043686;28;20091;-74